»·PEaware :: CANNON61 KLSV-KLSV

CANNON61 :: KLSV-KLSV

FLIGHT INFORMATION

Flight Status: Arrived
Operator: Unknown
More flights by this operator :: More flights under this callsign
Pilot: Anonymous 3903 (3903)
Aircraft: FAIRCHILD A-10 THUNDERBOLT 2
(A10)
More flights by this aircraft type
Origin: KLSV Nellis AFB
United States
Destination: KLSV Nellis AFB
United States
More flights between these airports :: More routes between these airports
Route: R-4806W&E
File this flight plan on PilotEdge
Remarks:
Altitude:
(Current/Filed)
8,000ft
Speed:
(Current/Filed)
300kts
Departed: 29-Jun-19 07:22 PM
Arrived: 29-Jun-19 09:14 PM
Distance/Time
Traveled:
1nm/1:52
Distance/Time
To Go:
Arrived

Flight Plot

Page will automatically refresh every two minutes.

Flight plan parsing failed; only flown route is shown


Map Options




Map Legend


Flown Route
Filed Route
Departure Airport
Arrival Airport
Navaid (VOR, NDB)
Fix

Horizontal Profiles

Position Reports

Time Latitude Longitude Heading Altitude Ground
Speed
29-Jun-19 18:44 36.229107 -115.047917 130 1853ft 0kts
29-Jun-19 18:45 36.229107 -115.047917 129 1853ft 0kts
29-Jun-19 18:46 36.229107 -115.047917 129 1853ft 0kts
29-Jun-19 18:48 36.229107 -115.047917 129 1853ft 0kts
29-Jun-19 18:49 36.229107 -115.047917 129 1853ft 0kts
29-Jun-19 18:50 36.229107 -115.047917 129 1853ft 0kts
29-Jun-19 18:51 36.229107 -115.047917 129 1853ft 0kts
29-Jun-19 18:52 36.229107 -115.047917 129 1853ft 0kts
29-Jun-19 18:53 36.229107 -115.047917 129 1853ft 0kts
29-Jun-19 18:54 36.229107 -115.047917 129 1853ft 0kts
29-Jun-19 18:55 36.229107 -115.047917 129 1853ft 0kts
29-Jun-19 18:56 36.229107 -115.047917 129 1853ft 0kts
29-Jun-19 18:57 36.229107 -115.047917 129 1853ft 0kts
29-Jun-19 18:58 36.229107 -115.047917 129 1853ft 0kts
29-Jun-19 18:59 36.229107 -115.047917 129 1853ft 0kts
29-Jun-19 19:00 36.229107 -115.047917 129 1853ft 0kts
29-Jun-19 19:01 36.229107 -115.047917 129 1853ft 0kts
29-Jun-19 19:02 36.229107 -115.047917 129 1853ft 0kts
29-Jun-19 19:03 36.229107 -115.047917 129 1853ft 0kts
29-Jun-19 19:04 36.229107 -115.047917 129 1853ft 0kts
29-Jun-19 19:05 36.229107 -115.047917 129 1853ft 0kts
29-Jun-19 19:06 36.229107 -115.047916 127 1853ft 0kts
29-Jun-19 19:07 36.229107 -115.047916 127 1853ft 0kts
29-Jun-19 19:08 36.229107 -115.047916 127 1853ft 0kts
29-Jun-19 19:09 36.229107 -115.047916 127 1853ft 0kts
29-Jun-19 19:10 36.229107 -115.047916 127 1853ft 0kts
29-Jun-19 19:10 36.229107 -115.047916 127 1853ft 0kts
29-Jun-19 19:11 36.229107 -115.047916 127 1853ft 0kts
29-Jun-19 19:13 36.229107 -115.047916 127 1853ft 0kts
29-Jun-19 19:14 36.229107 -115.047916 127 1853ft 0kts
29-Jun-19 19:14 36.229107 -115.047916 127 1853ft 0kts
29-Jun-19 19:15 36.229087 -115.047884 128 1853ft 0kts
29-Jun-19 19:16 36.228759 -115.047478 141 1852ft 3kts
29-Jun-19 19:17 36.227264 -115.047745 131 1850ft 0kts
29-Jun-19 19:18 36.227264 -115.047745 131 1850ft 0kts
29-Jun-19 19:19 36.227264 -115.047745 131 1850ft 0kts
29-Jun-19 19:20 36.226926 -115.046717 69 1848ft 7kts
29-Jun-19 19:21 36.228442 -115.044985 41 1849ft 52kts
29-Jun-19 19:22 36.257491 -115.014234 40 2365ft 165kts
29-Jun-19 19:23 36.298018 -115.021717 289 3129ft 206kts
29-Jun-19 19:24 36.313289 -115.094524 283 3778ft 227kts
29-Jun-19 19:25 36.328389 -115.176631 289 3983ft 249kts
29-Jun-19 19:26 36.358349 -115.254770 305 4642ft 249kts
29-Jun-19 19:27 36.405281 -115.319077 327 4932ft 258kts
29-Jun-19 19:28 36.459938 -115.377363 311 5724ft 248kts
29-Jun-19 19:29 36.501781 -115.446418 295 6491ft 247kts
29-Jun-19 19:30 36.528701 -115.527748 281 6992ft 256kts
29-Jun-19 19:31 36.535659 -115.621033 271 6831ft 281kts
29-Jun-19 19:32 36.495215 -115.676789 141 6935ft 242kts
29-Jun-19 19:33 36.513103 -115.613766 10 6825ft 274kts
29-Jun-19 19:34 36.589928 -115.637949 348 6686ft 284kts
29-Jun-19 19:35 36.644063 -115.611473 73 6956ft 244kts
29-Jun-19 19:36 36.671263 -115.530668 46 6677ft 272kts
29-Jun-19 19:37 36.735305 -115.479759 33 6760ft 271kts
29-Jun-19 19:38 36.808431 -115.453878 10 7319ft 247kts
29-Jun-19 19:39 36.841493 -115.516491 228 7458ft 272kts
29-Jun-19 19:40 36.781844 -115.512044 125 7696ft 238kts
29-Jun-19 19:41 36.777797 -115.433234 54 7745ft 260kts
29-Jun-19 19:42 36.848018 -115.414747 336 7742ft 292kts
29-Jun-19 19:43 36.884099 -115.498942 215 7719ft 278kts
29-Jun-19 19:44 36.819048 -115.504522 184 7936ft 244kts
29-Jun-19 19:45 36.748449 -115.515255 155 7962ft 253kts
29-Jun-19 19:46 36.740705 -115.445626 47 7979ft 262kts
29-Jun-19 19:47 36.811036 -115.412836 7 7981ft 282kts
29-Jun-19 19:48 36.889081 -115.432913 336 7981ft 292kts
29-Jun-19 19:49 36.865126 -115.470948 183 8171ft 244kts
29-Jun-19 19:50 36.794429 -115.484282 178 8157ft 264kts
29-Jun-19 19:51 36.732816 -115.456376 102 8164ft 251kts
29-Jun-19 19:52 36.776226 -115.400404 359 8165ft 284kts
29-Jun-19 19:53 36.853964 -115.417719 338 8253ft 290kts
29-Jun-19 19:54 36.880760 -115.495089 219 8559ft 277kts
29-Jun-19 19:55 36.809479 -115.515815 187 8601ft 272kts
29-Jun-19 19:56 36.760053 -115.478269 106 8558ft 251kts
29-Jun-19 19:57 36.762305 -115.399971 9 8521ft 275kts
29-Jun-19 19:58 36.792866 -115.488650 264 6423ft 261kts
29-Jun-19 19:59 36.750528 -115.531318 159 7504ft 221kts
29-Jun-19 20:00 36.720672 -115.468940 77 7498ft 248kts
29-Jun-19 20:01 36.785402 -115.473774 308 7735ft 240kts
29-Jun-19 20:02 36.755809 -115.523334 173 7763ft 252kts
29-Jun-19 20:03 36.720895 -115.457419 77 8451ft 227kts
29-Jun-19 20:04 36.776749 -115.410282 4 8963ft 301kts
29-Jun-19 20:05 36.797089 -115.456116 178 5865ft 343kts
29-Jun-19 20:06 36.715139 -115.462414 146 7109ft 274kts
29-Jun-19 20:07 36.716147 -115.388427 27 7152ft 278kts
29-Jun-19 20:08 36.794385 -115.389764 357 7401ft 283kts
29-Jun-19 20:09 36.872806 -115.409752 330 7350ft 298kts
29-Jun-19 20:10 36.845880 -115.464126 157 6541ft 278kts
29-Jun-19 20:11 36.768246 -115.462054 191 6943ft 243kts
29-Jun-19 20:12 36.734016 -115.415392 64 7545ft 239kts
29-Jun-19 20:13 36.797605 -115.377608 15 7527ft 281kts
29-Jun-19 20:14 36.875908 -115.366444 358 7532ft 288kts
29-Jun-19 20:15 36.923990 -115.420528 230 7522ft 289kts
29-Jun-19 20:16 36.858846 -115.474465 216 7535ft 287kts
29-Jun-19 20:17 36.798740 -115.533501 173 7565ft 266kts
29-Jun-19 20:18 36.722289 -115.535385 177 7555ft 278kts
29-Jun-19 20:19 36.660212 -115.506722 106 7486ft 259kts
29-Jun-19 20:20 36.681717 -115.424941 38 7508ft 276kts
29-Jun-19 20:21 36.753472 -115.417357 21 8594ft 235kts
29-Jun-19 20:22 36.819587 -115.394692 13 9889ft 271kts
29-Jun-19 20:23 36.901922 -115.410360 358 9890ft 309kts
29-Jun-19 20:24 36.985872 -115.412515 353 9875ft 295kts
29-Jun-19 20:25 36.969527 -115.483064 170 9934ft 266kts
29-Jun-19 20:26 36.899380 -115.462446 174 9948ft 275kts
29-Jun-19 20:27 36.822057 -115.476140 188 9987ft 283kts
29-Jun-19 20:28 36.746342 -115.508426 199 9987ft 288kts
29-Jun-19 20:29 36.689757 -115.492703 103 10632ft 242kts
29-Jun-19 20:30 36.721905 -115.421342 22 10627ft 279kts
29-Jun-19 20:31 36.797488 -115.394615 25 10643ft 281kts
29-Jun-19 20:32 36.870695 -115.386245 315 10705ft 301kts
29-Jun-19 20:33 36.855141 -115.469873 187 10704ft 276kts
29-Jun-19 20:34 36.785752 -115.456739 161 11885ft 245kts
29-Jun-19 20:35 36.725382 -115.422455 68 12167ft 228kts
29-Jun-19 20:36 36.791211 -115.394597 0 12332ft 283kts
29-Jun-19 20:37 36.871539 -115.407368 359 12130ft 294kts
29-Jun-19 20:38 36.870591 -115.455514 182 10358ft 269kts
29-Jun-19 20:39 36.797785 -115.457574 174 10776ft 271kts
29-Jun-19 20:40 36.719938 -115.467176 182 10915ft 280kts
29-Jun-19 20:41 36.654435 -115.447470 99 10838ft 265kts
29-Jun-19 20:42 36.711996 -115.394444 11 10182ft 288kts
29-Jun-19 20:43 36.773397 -115.457220 309 8224ft 297kts
29-Jun-19 20:44 36.725749 -115.482720 116 10124ft 233kts
29-Jun-19 20:45 36.805172 -115.454157 341 5193ft 306kts
29-Jun-19 20:46 36.764025 -115.478991 234 5614ft 239kts
29-Jun-19 20:47 36.713322 -115.506927 99 7939ft 207kts
29-Jun-19 20:48 36.757204 -115.444188 321 8869ft 253kts
29-Jun-19 20:49 36.713599 -115.507116 250 9396ft 295kts
29-Jun-19 20:50 36.757380 -115.516479 88 9592ft 256kts
29-Jun-19 20:51 36.727386 -115.541422 316 9029ft 303kts
29-Jun-19 20:52 36.763777 -115.509806 127 9256ft 220kts
29-Jun-19 20:53 36.712302 -115.539166 238 9184ft 256kts
29-Jun-19 20:54 36.669402 -115.599486 170 9148ft 225kts
29-Jun-19 20:55 36.651356 -115.545295 46 9153ft 228kts
29-Jun-19 20:56 36.707251 -115.567040 284 9149ft 263kts
29-Jun-19 20:57 36.670840 -115.622037 158 9153ft 222kts
29-Jun-19 20:58 36.663727 -115.563240 35 9153ft 234kts
29-Jun-19 20:59 36.716390 -115.597741 273 9150ft 262kts
29-Jun-19 21:00 36.673051 -115.651654 188 9129ft 237kts
29-Jun-19 21:01 36.604305 -115.670021 181 8719ft 264kts
29-Jun-19 21:02 36.522963 -115.674184 170 7961ft 300kts
29-Jun-19 21:03 36.454466 -115.632547 123 7940ft 282kts
29-Jun-19 21:04 36.403838 -115.556825 121 7960ft 283kts
29-Jun-19 21:05 36.379569 -115.464492 103 7941ft 283kts
29-Jun-19 21:07 36.359822 -115.369722 103 7941ft 283kts
29-Jun-19 21:08 36.341660 -115.282352 102 7878ft 251kts
29-Jun-19 21:09 36.330423 -115.195996 92 7593ft 257kts
29-Jun-19 21:10 36.332570 -115.109341 94 6786ft 266kts
29-Jun-19 21:11 36.314772 -115.032537 113 4549ft 207kts
29-Jun-19 21:12 36.271662 -115.002991 193 2594ft 159kts
29-Jun-19 21:13 36.239887 -115.032243 220 1857ft 97kts
29-Jun-19 21:14 36.226129 -115.046330 183 1848ft 35kts

Navigation Log

Ident Type
Flight plan parsing failed, navigation log unavailable